sensor_id;sensor_type;location;lat;lon;timestamp;temperature;humidity
9271;DHT22;4673;53.458;9.940;2024-02-15T00:01:54;11.10;85.60
9271;DHT22;4673;53.458;9.940;2024-02-15T00:04:20;11.10;85.60
9271;DHT22;4673;53.458;9.940;2024-02-15T00:06:45;11.10;85.50
9271;DHT22;4673;53.458;9.940;2024-02-15T00:09:11;11.10;85.60
9271;DHT22;4673;53.458;9.940;2024-02-15T00:11:37;11.20;85.60
9271;DHT22;4673;53.458;9.940;2024-02-15T00:14:04;11.20;85.50
9271;DHT22;4673;53.458;9.940;2024-02-15T00:16:30;11.10;85.40
9271;DHT22;4673;53.458;9.940;2024-02-15T00:18:56;11.20;85.40
9271;DHT22;4673;53.458;9.940;2024-02-15T00:21:22;11.20;85.30
9271;DHT22;4673;53.458;9.940;2024-02-15T00:23:48;11.20;85.30
9271;DHT22;4673;53.458;9.940;2024-02-15T00:26:14;11.20;85.30
9271;DHT22;4673;53.458;9.940;2024-02-15T00:28:43;11.20;85.20
9271;DHT22;4673;53.458;9.940;2024-02-15T00:31:09;11.20;85.10
9271;DHT22;4673;53.458;9.940;2024-02-15T00:33:35;11.20;85.10
9271;DHT22;4673;53.458;9.940;2024-02-15T00:36:04;11.30;85.40
9271;DHT22;4673;53.458;9.940;2024-02-15T00:38:31;11.20;85.30
9271;DHT22;4673;53.458;9.940;2024-02-15T00:40:57;11.30;85.50
9271;DHT22;4673;53.458;9.940;2024-02-15T00:43:24;11.20;85.20
9271;DHT22;4673;53.458;9.940;2024-02-15T00:45:50;11.20;85.10
9271;DHT22;4673;53.458;9.940;2024-02-15T00:48:15;11.20;85.00
9271;DHT22;4673;53.458;9.940;2024-02-15T00:50:41;11.10;85.10
9271;DHT22;4673;53.458;9.940;2024-02-15T00:53:07;11.20;85.10
9271;DHT22;4673;53.458;9.940;2024-02-15T00:55:32;11.20;85.10
9271;DHT22;4673;53.458;9.940;2024-02-15T00:57:58;11.30;85.40
9271;DHT22;4673;53.458;9.940;2024-02-15T01:00:23;11.30;85.30
9271;DHT22;4673;53.458;9.940;2024-02-15T01:02:49;11.20;85.10
9271;DHT22;4673;53.458;9.940;2024-02-15T01:05:15;11.20;85.10
9271;DHT22;4673;53.458;9.940;2024-02-15T01:07:41;11.30;85.30
9271;DHT22;4673;53.458;9.940;2024-02-15T01:10:07;11.30;85.20
9271;DHT22;4673;53.458;9.940;2024-02-15T01:12:33;11.20;85.00
9271;DHT22;4673;53.458;9.940;2024-02-15T01:14:59;11.30;85.20
9271;DHT22;4673;53.458;9.940;2024-02-15T01:17:24;11.30;85.30
9271;DHT22;4673;53.458;9.940;2024-02-15T01:19:50;11.30;85.20
9271;DHT22;4673;53.458;9.940;2024-02-15T01:22:16;11.30;85.10
9271;DHT22;4673;53.458;9.940;2024-02-15T01:24:42;11.30;85.10
9271;DHT22;4673;53.458;9.940;2024-02-15T01:27:07;11.30;85.10
9271;DHT22;4673;53.458;9.940;2024-02-15T01:29:35;11.30;85.10
9271;DHT22;4673;53.458;9.940;2024-02-15T01:32:00;11.30;85.10
9271;DHT22;4673;53.458;9.940;2024-02-15T01:34:28;11.30;85.00
9271;DHT22;4673;53.458;9.940;2024-02-15T01:36:53;11.30;85.10
9271;DHT22;4673;53.458;9.940;2024-02-15T01:39:19;11.30;85.00
9271;DHT22;4673;53.458;9.940;2024-02-15T01:41:48;11.40;85.00
9271;DHT22;4673;53.458;9.940;2024-02-15T01:44:19;11.30;85.10
9271;DHT22;4673;53.458;9.940;2024-02-15T01:46:46;11.30;85.00
9271;DHT22;4673;53.458;9.940;2024-02-15T01:49:13;11.30;84.90
9271;DHT22;4673;53.458;9.940;2024-02-15T01:51:40;11.30;84.80
9271;DHT22;4673;53.458;9.940;2024-02-15T01:54:09;11.30;84.90
9271;DHT22;4673;53.458;9.940;2024-02-15T01:56:35;11.30;85.00
9271;DHT22;4673;53.458;9.940;2024-02-15T01:59:03;11.40;85.10
9271;DHT22;4673;53.458;9.940;2024-02-15T02:01:30;11.40;85.00
9271;DHT22;4673;53.458;9.940;2024-02-15T02:03:58;11.40;84.90
9271;DHT22;4673;53.458;9.940;2024-02-15T02:06:25;11.40;84.80
9271;DHT22;4673;53.458;9.940;2024-02-15T02:08:52;11.40;84.60
9271;DHT22;4673;53.458;9.940;2024-02-15T02:11:20;11.40;84.60
9271;DHT22;4673;53.458;9.940;2024-02-15T02:13:45;11.40;84.60
9271;DHT22;4673;53.458;9.940;2024-02-15T02:16:31;11.40;84.60
9271;DHT22;4673;53.458;9.940;2024-02-15T02:19:01;11.50;84.60
9271;DHT22;4673;53.458;9.940;2024-02-15T02:21:29;11.50;84.60
9271;DHT22;4673;53.458;9.940;2024-02-15T02:23:58;11.50;84.60
9271;DHT22;4673;53.458;9.940;2024-02-15T02:26:26;11.50;84.30
9271;DHT22;4673;53.458;9.940;2024-02-15T02:28:52;11.50;84.30
9271;DHT22;4673;53.458;9.940;2024-02-15T02:31:19;11.50;84.30
9271;DHT22;4673;53.458;9.940;2024-02-15T02:33:52;11.50;84.20
9271;DHT22;4673;53.458;9.940;2024-02-15T02:36:19;11.40;84.00
9271;DHT22;4673;53.458;9.940;2024-02-15T02:38:45;11.50;84.20
9271;DHT22;4673;53.458;9.940;2024-02-15T02:41:13;11.40;84.10
9271;DHT22;4673;53.458;9.940;2024-02-15T02:43:42;11.50;84.20
9271;DHT22;4673;53.458;9.940;2024-02-15T02:46:11;11.50;84.30
9271;DHT22;4673;53.458;9.940;2024-02-15T02:48:37;11.60;84.10
9271;DHT22;4673;53.458;9.940;2024-02-15T02:51:03;11.50;84.00
9271;DHT22;4673;53.458;9.940;2024-02-15T02:53:29;11.40;83.90
9271;DHT22;4673;53.458;9.940;2024-02-15T02:55:58;11.50;84.10
9271;DHT22;4673;53.458;9.940;2024-02-15T02:58:24;11.50;84.20
9271;DHT22;4673;53.458;9.940;2024-02-15T03:00:50;11.50;84.20
9271;DHT22;4673;53.458;9.940;2024-02-15T03:03:17;11.50;84.20
9271;DHT22;4673;53.458;9.940;2024-02-15T03:05:44;11.50;84.30
9271;DHT22;4673;53.458;9.940;2024-02-15T03:08:11;11.50;84.20
9271;DHT22;4673;53.458;9.940;2024-02-15T03:10:37;11.40;84.00
9271;DHT22;4673;53.458;9.940;2024-02-15T03:13:04;11.40;84.10
9271;DHT22;4673;53.458;9.940;2024-02-15T03:15:30;11.40;84.30
9271;DHT22;4673;53.458;9.940;2024-02-15T03:17:58;11.40;84.30
9271;DHT22;4673;53.458;9.940;2024-02-15T03:20:24;11.40;84.30
9271;DHT22;4673;53.458;9.940;2024-02-15T03:22:56;11.40;84.40
9271;DHT22;4673;53.458;9.940;2024-02-15T03:25:22;11.40;84.50
9271;DHT22;4673;53.458;9.940;2024-02-15T03:27:51;11.40;84.70
9271;DHT22;4673;53.458;9.940;2024-02-15T03:30:18;11.40;84.70
9271;DHT22;4673;53.458;9.940;2024-02-15T03:32:45;11.40;84.80
9271;DHT22;4673;53.458;9.940;2024-02-15T03:35:17;11.50;84.90
9271;DHT22;4673;53.458;9.940;2024-02-15T03:37:43;11.40;84.70
9271;DHT22;4673;53.458;9.940;2024-02-15T03:40:09;11.50;85.00
9271;DHT22;4673;53.458;9.940;2024-02-15T03:42:35;11.50;85.10
9271;DHT22;4673;53.458;9.940;2024-02-15T03:45:04;11.50;84.90
9271;DHT22;4673;53.458;9.940;2024-02-15T03:47:34;11.40;84.80
9271;DHT22;4673;53.458;9.940;2024-02-15T03:50:04;11.50;85.00
9271;DHT22;4673;53.458;9.940;2024-02-15T03:52:31;11.50;85.10
9271;DHT22;4673;53.458;9.940;2024-02-15T03:54:57;11.50;85.00
9271;DHT22;4673;53.458;9.940;2024-02-15T03:57:26;11.50;85.00
9271;DHT22;4673;53.458;9.940;2024-02-15T03:59:52;11.50;84.90
9271;DHT22;4673;53.458;9.940;2024-02-15T04:02:23;11.50;85.00
9271;DHT22;4673;53.458;9.940;2024-02-15T04:04:49;11.50;85.00
9271;DHT22;4673;53.458;9.940;2024-02-15T04:07:18;11.40;84.80
9271;DHT22;4673;53.458;9.940;2024-02-15T04:09:47;11.50;85.00
9271;DHT22;4673;53.458;9.940;2024-02-15T04:12:13;11.50;85.10
9271;DHT22;4673;53.458;9.940;2024-02-15T04:14:40;11.50;85.10
9271;DHT22;4673;53.458;9.940;2024-02-15T04:17:06;11.50;85.10
9271;DHT22;4673;53.458;9.940;2024-02-15T04:19:32;11.50;85.10
9271;DHT22;4673;53.458;9.940;2024-02-15T04:21:58;11.60;85.10
9271;DHT22;4673;53.458;9.940;2024-02-15T04:24:25;11.60;85.20
9271;DHT22;4673;53.458;9.940;2024-02-15T04:26:51;11.60;85.10
9271;DHT22;4673;53.458;9.940;2024-02-15T04:29:17;11.50;84.90
9271;DHT22;4673;53.458;9.940;2024-02-15T04:31:48;11.50;84.90
9271;DHT22;4673;53.458;9.940;2024-02-15T04:34:15;11.50;85.10
9271;DHT22;4673;53.458;9.940;2024-02-15T04:36:43;11.50;85.10
9271;DHT22;4673;53.458;9.940;2024-02-15T04:39:10;11.60;85.10
9271;DHT22;4673;53.458;9.940;2024-02-15T04:41:39;11.60;85.00
9271;DHT22;4673;53.458;9.940;2024-02-15T04:44:05;11.50;84.90
9271;DHT22;4673;53.458;9.940;2024-02-15T04:46:34;11.50;85.00
9271;DHT22;4673;53.458;9.940;2024-02-15T04:48:59;11.60;85.10
9271;DHT22;4673;53.458;9.940;2024-02-15T04:51:27;11.60;85.10
9271;DHT22;4673;53.458;9.940;2024-02-15T04:53:53;11.60;85.00
9271;DHT22;4673;53.458;9.940;2024-02-15T04:56:18;11.50;85.00
9271;DHT22;4673;53.458;9.940;2024-02-15T04:58:46;11.50;84.90
9271;DHT22;4673;53.458;9.940;2024-02-15T05:01:16;11.50;85.00
9271;DHT22;4673;53.458;9.940;2024-02-15T05:03:43;11.60;85.00
9271;DHT22;4673;53.458;9.940;2024-02-15T05:06:08;11.40;84.90
9271;DHT22;4673;53.458;9.940;2024-02-15T05:08:36;11.50;85.00
9271;DHT22;4673;53.458;9.940;2024-02-15T05:11:10;11.50;85.10
9271;DHT22;4673;53.458;9.940;2024-02-15T05:13:48;11.60;85.10
9271;DHT22;4673;53.458;9.940;2024-02-15T05:16:17;11.50;85.00
9271;DHT22;4673;53.458;9.940;2024-02-15T05:18:42;11.50;84.90
9271;DHT22;4673;53.458;9.940;2024-02-15T05:21:08;11.60;85.00
9271;DHT22;4673;53.458;9.940;2024-02-15T05:23:35;11.50;84.80
9271;DHT22;4673;53.458;9.940;2024-02-15T05:26:02;11.60;85.00
9271;DHT22;4673;53.458;9.940;2024-02-15T05:28:29;11.60;85.00
9271;DHT22;4673;53.458;9.940;2024-02-15T05:31:09;11.50;84.90
9271;DHT22;4673;53.458;9.940;2024-02-15T05:33:37;11.60;84.90
9271;DHT22;4673;53.458;9.940;2024-02-15T05:36:08;11.50;84.90
9271;DHT22;4673;53.458;9.940;2024-02-15T05:38:34;11.50;85.00
9271;DHT22;4673;53.458;9.940;2024-02-15T05:41:00;11.50;84.80
9271;DHT22;4673;53.458;9.940;2024-02-15T05:43:26;11.50;84.90
9271;DHT22;4673;53.458;9.940;2024-02-15T05:45:51;11.60;84.90
9271;DHT22;4673;53.458;9.940;2024-02-15T05:48:18;11.60;84.90
9271;DHT22;4673;53.458;9.940;2024-02-15T05:50:44;11.50;84.90
9271;DHT22;4673;53.458;9.940;2024-02-15T05:53:09;11.60;84.80
9271;DHT22;4673;53.458;9.940;2024-02-15T05:55:35;11.60;84.90
9271;DHT22;4673;53.458;9.940;2024-02-15T05:58:03;11.50;84.90
9271;DHT22;4673;53.458;9.940;2024-02-15T06:00:29;11.50;84.70
9271;DHT22;4673;53.458;9.940;2024-02-15T06:02:55;11.50;84.80
9271;DHT22;4673;53.458;9.940;2024-02-15T06:05:21;11.60;85.00
9271;DHT22;4673;53.458;9.940;2024-02-15T06:07:47;11.60;84.90
9271;DHT22;4673;53.458;9.940;2024-02-15T06:10:13;11.50;85.00
9271;DHT22;4673;53.458;9.940;2024-02-15T06:12:41;11.50;85.10
9271;DHT22;4673;53.458;9.940;2024-02-15T06:15:07;11.50;84.90
9271;DHT22;4673;53.458;9.940;2024-02-15T06:17:40;11.50;84.90
9271;DHT22;4673;53.458;9.940;2024-02-15T06:20:07;11.50;84.60
9271;DHT22;4673;53.458;9.940;2024-02-15T06:22:33;11.50;84.70
9271;DHT22;4673;53.458;9.940;2024-02-15T06:24:58;11.50;84.60
9271;DHT22;4673;53.458;9.940;2024-02-15T06:27:24;11.50;84.70
9271;DHT22;4673;53.458;9.940;2024-02-15T06:29:50;11.50;84.70
9271;DHT22;4673;53.458;9.940;2024-02-15T06:32:34;11.50;84.70
9271;DHT22;4673;53.458;9.940;2024-02-15T06:35:18;11.50;84.70
9271;DHT22;4673;53.458;9.940;2024-02-15T06:38:03;11.60;84.70
9271;DHT22;4673;53.458;9.940;2024-02-15T06:40:47;11.60;84.70
9271;DHT22;4673;53.458;9.940;2024-02-15T06:43:12;11.50;84.40
9271;DHT22;4673;53.458;9.940;2024-02-15T06:45:39;11.40;84.20
9271;DHT22;4673;53.458;9.940;2024-02-15T06:48:10;11.40;84.20
9271;DHT22;4673;53.458;9.940;2024-02-15T06:50:35;11.40;84.40
9271;DHT22;4673;53.458;9.940;2024-02-15T06:53:02;11.50;84.40
9271;DHT22;4673;53.458;9.940;2024-02-15T06:55:28;11.50;84.50
9271;DHT22;4673;53.458;9.940;2024-02-15T06:57:54;11.50;84.50
9271;DHT22;4673;53.458;9.940;2024-02-15T07:00:20;11.50;84.50
9271;DHT22;4673;53.458;9.940;2024-02-15T07:02:46;11.50;84.40
9271;DHT22;4673;53.458;9.940;2024-02-15T07:05:14;11.50;84.10
9271;DHT22;4673;53.458;9.940;2024-02-15T07:07:39;11.50;84.10
9271;DHT22;4673;53.458;9.940;2024-02-15T07:10:08;11.50;84.10
9271;DHT22;4673;53.458;9.940;2024-02-15T07:12:35;11.50;84.20
9271;DHT22;4673;53.458;9.940;2024-02-15T07:15:01;11.60;84.20
9271;DHT22;4673;53.458;9.940;2024-02-15T07:17:29;11.60;84.00
9271;DHT22;4673;53.458;9.940;2024-02-15T07:19:54;11.60;83.70
9271;DHT22;4673;53.458;9.940;2024-02-15T07:22:20;11.60;83.90
9271;DHT22;4673;53.458;9.940;2024-02-15T07:24:47;11.70;84.00
9271;DHT22;4673;53.458;9.940;2024-02-15T07:27:13;11.70;83.80
9271;DHT22;4673;53.458;9.940;2024-02-15T07:29:38;11.70;83.80
9271;DHT22;4673;53.458;9.940;2024-02-15T07:32:05;11.80;83.70
9271;DHT22;4673;53.458;9.940;2024-02-15T07:34:31;11.80;83.60
9271;DHT22;4673;53.458;9.940;2024-02-15T07:36:58;11.90;83.50
9271;DHT22;4673;53.458;9.940;2024-02-15T07:39:24;11.90;83.40
9271;DHT22;4673;53.458;9.940;2024-02-15T07:41:56;11.90;83.10
9271;DHT22;4673;53.458;9.940;2024-02-15T07:44:25;11.90;82.50
9271;DHT22;4673;53.458;9.940;2024-02-15T07:46:52;11.80;82.40
9271;DHT22;4673;53.458;9.940;2024-02-15T07:49:18;11.80;82.20
9271;DHT22;4673;53.458;9.940;2024-02-15T07:51:44;11.80;81.80
9271;DHT22;4673;53.458;9.940;2024-02-15T07:54:11;11.80;82.00
9271;DHT22;4673;53.458;9.940;2024-02-15T07:56:37;11.70;81.90
9271;DHT22;4673;53.458;9.940;2024-02-15T07:59:04;11.70;82.20
9271;DHT22;4673;53.458;9.940;2024-02-15T08:01:29;11.80;82.50
9271;DHT22;4673;53.458;9.940;2024-02-15T08:03:56;11.90;82.70
9271;DHT22;4673;53.458;9.940;2024-02-15T08:06:22;11.90;82.60
9271;DHT22;4673;53.458;9.940;2024-02-15T08:08:51;11.90;82.40
9271;DHT22;4673;53.458;9.940;2024-02-15T08:11:17;11.90;82.50
9271;DHT22;4673;53.458;9.940;2024-02-15T08:13:48;11.90;82.40
9271;DHT22;4673;53.458;9.940;2024-02-15T08:16:22;11.90;82.60
9271;DHT22;4673;53.458;9.940;2024-02-15T08:18:48;12.00;82.80
9271;DHT22;4673;53.458;9.940;2024-02-15T08:21:17;12.00;82.80
9271;DHT22;4673;53.458;9.940;2024-02-15T08:23:43;12.00;82.70
9271;DHT22;4673;53.458;9.940;2024-02-15T08:26:08;12.00;82.50
9271;DHT22;4673;53.458;9.940;2024-02-15T08:28:36;12.00;82.20
9271;DHT22;4673;53.458;9.940;2024-02-15T08:31:02;12.10;82.60
9271;DHT22;4673;53.458;9.940;2024-02-15T08:33:29;12.10;82.80
9271;DHT22;4673;53.458;9.940;2024-02-15T08:35:55;12.20;82.70
9271;DHT22;4673;53.458;9.940;2024-02-15T08:38:22;12.30;83.10
9271;DHT22;4673;53.458;9.940;2024-02-15T08:40:48;12.40;83.30
9271;DHT22;4673;53.458;9.940;2024-02-15T08:43:14;12.40;82.70
9271;DHT22;4673;53.458;9.940;2024-02-15T08:45:41;12.40;82.40
9271;DHT22;4673;53.458;9.940;2024-02-15T08:48:07;12.40;82.30
9271;DHT22;4673;53.458;9.940;2024-02-15T08:50:33;12.40;81.90
9271;DHT22;4673;53.458;9.940;2024-02-15T08:52:59;12.40;81.40
9271;DHT22;4673;53.458;9.940;2024-02-15T08:55:24;12.40;81.40
9271;DHT22;4673;53.458;9.940;2024-02-15T08:57:53;12.50;81.50
9271;DHT22;4673;53.458;9.940;2024-02-15T09:00:19;12.50;81.00
9271;DHT22;4673;53.458;9.940;2024-02-15T09:02:46;12.50;80.60
9271;DHT22;4673;53.458;9.940;2024-02-15T09:05:12;12.60;80.70
9271;DHT22;4673;53.458;9.940;2024-02-15T09:07:43;12.70;80.80
9271;DHT22;4673;53.458;9.940;2024-02-15T09:10:12;12.80;80.40
9271;DHT22;4673;53.458;9.940;2024-02-15T09:12:39;12.80;80.00
9271;DHT22;4673;53.458;9.940;2024-02-15T09:15:06;12.80;79.30
9271;DHT22;4673;53.458;9.940;2024-02-15T09:17:32;12.80;79.00
9271;DHT22;4673;53.458;9.940;2024-02-15T09:20:07;12.70;78.70
9271;DHT22;4673;53.458;9.940;2024-02-15T09:22:34;12.70;78.30
9271;DHT22;4673;53.458;9.940;2024-02-15T09:25:02;12.70;78.40
9271;DHT22;4673;53.458;9.940;2024-02-15T09:27:28;12.70;78.00
9271;DHT22;4673;53.458;9.940;2024-02-15T09:29:53;12.70;78.10
9271;DHT22;4673;53.458;9.940;2024-02-15T09:32:21;12.70;78.20
9271;DHT22;4673;53.458;9.940;2024-02-15T09:34:48;12.70;78.30
9271;DHT22;4673;53.458;9.940;2024-02-15T09:37:14;12.60;78.40
9271;DHT22;4673;53.458;9.940;2024-02-15T09:39:41;12.60;78.60
9271;DHT22;4673;53.458;9.940;2024-02-15T09:42:06;12.70;78.90
9271;DHT22;4673;53.458;9.940;2024-02-15T09:44:32;12.60;78.70
9271;DHT22;4673;53.458;9.940;2024-02-15T09:47:05;12.60;78.50
9271;DHT22;4673;53.458;9.940;2024-02-15T09:49:35;12.40;78.40
9271;DHT22;4673;53.458;9.940;2024-02-15T09:52:03;12.50;79.10
9271;DHT22;4673;53.458;9.940;2024-02-15T09:54:30;12.40;78.90
9271;DHT22;4673;53.458;9.940;2024-02-15T09:56:57;12.40;79.30
9271;DHT22;4673;53.458;9.940;2024-02-15T09:59:25;12.50;78.90
9271;DHT22;4673;53.458;9.940;2024-02-15T10:01:52;12.40;79.00
9271;DHT22;4673;53.458;9.940;2024-02-15T10:04:19;12.50;79.70
9271;DHT22;4673;53.458;9.940;2024-02-15T10:06:45;12.40;79.20
9271;DHT22;4673;53.458;9.940;2024-02-15T10:09:30;12.40;79.30
9271;DHT22;4673;53.458;9.940;2024-02-15T10:12:01;12.40;79.40
9271;DHT22;4673;53.458;9.940;2024-02-15T10:14:28;12.40;79.70
9271;DHT22;4673;53.458;9.940;2024-02-15T10:16:54;12.50;80.10
9271;DHT22;4673;53.458;9.940;2024-02-15T10:19:21;12.50;80.20
9271;DHT22;4673;53.458;9.940;2024-02-15T10:21:53;12.70;80.50
9271;DHT22;4673;53.458;9.940;2024-02-15T10:24:23;12.70;80.10
9271;DHT22;4673;53.458;9.940;2024-02-15T10:27:01;12.80;80.10
9271;DHT22;4673;53.458;9.940;2024-02-15T10:29:30;12.80;79.70
9271;DHT22;4673;53.458;9.940;2024-02-15T10:32:00;12.90;79.70
9271;DHT22;4673;53.458;9.940;2024-02-15T10:34:27;12.90;78.50
9271;DHT22;4673;53.458;9.940;2024-02-15T10:37:12;12.90;78.70
9271;DHT22;4673;53.458;9.940;2024-02-15T10:39:38;12.90;78.40
9271;DHT22;4673;53.458;9.940;2024-02-15T10:42:06;13.00;78.40
9271;DHT22;4673;53.458;9.940;2024-02-15T10:44:32;12.90;77.80
9271;DHT22;4673;53.458;9.940;2024-02-15T10:47:01;12.90;77.60
9271;DHT22;4673;53.458;9.940;2024-02-15T10:49:32;13.00;77.70
9271;DHT22;4673;53.458;9.940;2024-02-15T10:51:59;13.00;77.00
9271;DHT22;4673;53.458;9.940;2024-02-15T10:55:08;13.00;77.00
9271;DHT22;4673;53.458;9.940;2024-02-15T10:57:37;13.00;77.30
9271;DHT22;4673;53.458;9.940;2024-02-15T11:00:06;13.10;77.50
9271;DHT22;4673;53.458;9.940;2024-02-15T11:02:45;13.10;77.30
9271;DHT22;4673;53.458;9.940;2024-02-15T11:05:15;13.10;77.00
9271;DHT22;4673;53.458;9.940;2024-02-15T11:07:46;13.20;77.20
9271;DHT22;4673;53.458;9.940;2024-02-15T11:10:12;13.30;76.90
9271;DHT22;4673;53.458;9.940;2024-02-15T11:12:42;13.20;75.90
9271;DHT22;4673;53.458;9.940;2024-02-15T11:15:09;13.20;76.20
9271;DHT22;4673;53.458;9.940;2024-02-15T11:20:54;13.10;75.90
9271;DHT22;4673;53.458;9.940;2024-02-15T11:22:57;13.10;76.10
9271;DHT22;4673;53.458;9.940;2024-02-15T11:25:35;13.10;76.40
9271;DHT22;4673;53.458;9.940;2024-02-15T11:30:51;13.00;76.10
9271;DHT22;4673;53.458;9.940;2024-02-15T11:33:30;12.90;76.00
9271;DHT22;4673;53.458;9.940;2024-02-15T11:38:30;12.80;76.50
9271;DHT22;4673;53.458;9.940;2024-02-15T11:46:20;12.80;77.60
9271;DHT22;4673;53.458;9.940;2024-02-15T11:48:46;12.80;77.80
9271;DHT22;4673;53.458;9.940;2024-02-15T11:51:45;12.80;77.90
9271;DHT22;4673;53.458;9.940;2024-02-15T11:54:12;12.80;78.00
9271;DHT22;4673;53.458;9.940;2024-02-15T11:59:10;12.80;78.70
9271;DHT22;4673;53.458;9.940;2024-02-15T12:01:44;12.80;78.90
9271;DHT22;4673;53.458;9.940;2024-02-15T12:04:30;12.70;79.00
9271;DHT22;4673;53.458;9.940;2024-02-15T12:07:15;12.80;79.40
9271;DHT22;4673;53.458;9.940;2024-02-15T12:09:59;12.70;79.50
9271;DHT22;4673;53.458;9.940;2024-02-15T12:12:51;12.80;79.70
9271;DHT22;4673;53.458;9.940;2024-02-15T12:15:36;12.70;79.40
9271;DHT22;4673;53.458;9.940;2024-02-15T12:18:20;12.70;79.70
9271;DHT22;4673;53.458;9.940;2024-02-15T12:21:05;12.70;80.00
9271;DHT22;4673;53.458;9.940;2024-02-15T12:23:32;12.80;80.20
9271;DHT22;4673;53.458;9.940;2024-02-15T12:26:00;12.80;80.30
9271;DHT22;4673;53.458;9.940;2024-02-15T12:28:26;12.70;80.10
9271;DHT22;4673;53.458;9.940;2024-02-15T12:30:56;12.70;80.10
9271;DHT22;4673;53.458;9.940;2024-02-15T12:33:23;12.60;79.70
9271;DHT22;4673;53.458;9.940;2024-02-15T12:35:49;12.60;80.00
9271;DHT22;4673;53.458;9.940;2024-02-15T12:38:18;12.50;80.00
9271;DHT22;4673;53.458;9.940;2024-02-15T12:40:44;12.40;80.40
9271;DHT22;4673;53.458;9.940;2024-02-15T12:43:10;12.40;80.60
9271;DHT22;4673;53.458;9.940;2024-02-15T12:45:38;12.40;80.90
9271;DHT22;4673;53.458;9.940;2024-02-15T12:48:05;12.40;81.30
9271;DHT22;4673;53.458;9.940;2024-02-15T12:50:34;12.30;81.50
9271;DHT22;4673;53.458;9.940;2024-02-15T12:53:00;12.40;82.00
9271;DHT22;4673;53.458;9.940;2024-02-15T12:55:30;12.50;82.40
9271;DHT22;4673;53.458;9.940;2024-02-15T12:58:03;12.60;82.70
9271;DHT22;4673;53.458;9.940;2024-02-15T13:00:34;12.70;82.70
9271;DHT22;4673;53.458;9.940;2024-02-15T13:03:06;12.70;82.60
9271;DHT22;4673;53.458;9.940;2024-02-15T13:05:34;12.80;82.70
9271;DHT22;4673;53.458;9.940;2024-02-15T13:08:01;12.70;82.10
9271;DHT22;4673;53.458;9.940;2024-02-15T13:10:31;12.60;81.90
9271;DHT22;4673;53.458;9.940;2024-02-15T13:12:57;12.50;81.70
9271;DHT22;4673;53.458;9.940;2024-02-15T13:15:23;12.50;81.90
9271;DHT22;4673;53.458;9.940;2024-02-15T13:17:56;12.50;82.00
9271;DHT22;4673;53.458;9.940;2024-02-15T13:20:22;12.50;82.40
9271;DHT22;4673;53.458;9.940;2024-02-15T13:23:08;12.50;82.40
9271;DHT22;4673;53.458;9.940;2024-02-15T13:25:37;12.60;82.50
9271;DHT22;4673;53.458;9.940;2024-02-15T13:28:05;12.60;82.30
9271;DHT22;4673;53.458;9.940;2024-02-15T13:30:31;12.50;82.30
9271;DHT22;4673;53.458;9.940;2024-02-15T13:32:56;12.50;82.10
9271;DHT22;4673;53.458;9.940;2024-02-15T13:35:23;12.50;82.00
9271;DHT22;4673;53.458;9.940;2024-02-15T13:37:52;12.40;81.80
9271;DHT22;4673;53.458;9.940;2024-02-15T13:40:21;12.50;82.50
9271;DHT22;4673;53.458;9.940;2024-02-15T13:42:53;12.50;82.50
9271;DHT22;4673;53.458;9.940;2024-02-15T13:45:30;12.60;82.70
9271;DHT22;4673;53.458;9.940;2024-02-15T13:47:59;12.60;82.60
9271;DHT22;4673;53.458;9.940;2024-02-15T13:50:28;12.60;82.70
9271;DHT22;4673;53.458;9.940;2024-02-15T13:52:54;12.70;82.80
9271;DHT22;4673;53.458;9.940;2024-02-15T13:55:19;12.80;82.40
9271;DHT22;4673;53.458;9.940;2024-02-15T13:57:48;12.80;82.30
9271;DHT22;4673;53.458;9.940;2024-02-15T14:00:15;12.80;81.70
9271;DHT22;4673;53.458;9.940;2024-02-15T14:02:48;12.90;81.60
9271;DHT22;4673;53.458;9.940;2024-02-15T14:05:14;12.80;81.10
9271;DHT22;4673;53.458;9.940;2024-02-15T14:07:43;12.80;80.90
9271;DHT22;4673;53.458;9.940;2024-02-15T14:10:09;12.80;80.80
9271;DHT22;4673;53.458;9.940;2024-02-15T14:12:38;12.80;80.40
9271;DHT22;4673;53.458;9.940;2024-02-15T14:15:04;12.80;80.50
9271;DHT22;4673;53.458;9.940;2024-02-15T14:17:31;12.80;80.40
9271;DHT22;4673;53.458;9.940;2024-02-15T14:19:57;12.70;80.10
9271;DHT22;4673;53.458;9.940;2024-02-15T14:22:23;12.70;79.90
9271;DHT22;4673;53.458;9.940;2024-02-15T14:24:53;12.60;79.70
9271;DHT22;4673;53.458;9.940;2024-02-15T14:27:19;12.50;80.30
9271;DHT22;4673;53.458;9.940;2024-02-15T14:29:45;12.60;80.50
9271;DHT22;4673;53.458;9.940;2024-02-15T14:32:30;12.60;80.60
9271;DHT22;4673;53.458;9.940;2024-02-15T14:35:14;12.50;80.70
9271;DHT22;4673;53.458;9.940;2024-02-15T14:37:42;12.60;80.70
9271;DHT22;4673;53.458;9.940;2024-02-15T14:40:08;12.60;80.60
9271;DHT22;4673;53.458;9.940;2024-02-15T14:42:34;12.60;80.80
9271;DHT22;4673;53.458;9.940;2024-02-15T14:45:01;12.70;81.10
9271;DHT22;4673;53.458;9.940;2024-02-15T14:47:27;12.70;80.80
9271;DHT22;4673;53.458;9.940;2024-02-15T14:49:52;12.60;80.30
9271;DHT22;4673;53.458;9.940;2024-02-15T14:52:18;12.70;80.30
9271;DHT22;4673;53.458;9.940;2024-02-15T14:54:44;12.60;80.10
9271;DHT22;4673;53.458;9.940;2024-02-15T14:57:09;12.60;80.20
9271;DHT22;4673;53.458;9.940;2024-02-15T14:59:35;12.60;79.70
9271;DHT22;4673;53.458;9.940;2024-02-15T15:02:02;12.50;79.70
9271;DHT22;4673;53.458;9.940;2024-02-15T15:04:34;12.50;79.80
9271;DHT22;4673;53.458;9.940;2024-02-15T15:07:13;12.40;80.00
9271;DHT22;4673;53.458;9.940;2024-02-15T15:09:57;12.50;80.70
9271;DHT22;4673;53.458;9.940;2024-02-15T15:12:41;12.40;80.70
9271;DHT22;4673;53.458;9.940;2024-02-15T15:15:11;12.40;80.50
9271;DHT22;4673;53.458;9.940;2024-02-15T15:17:38;12.50;80.70
9271;DHT22;4673;53.458;9.940;2024-02-15T15:20:05;12.40;80.40
9271;DHT22;4673;53.458;9.940;2024-02-15T15:22:34;12.40;80.60
9271;DHT22;4673;53.458;9.940;2024-02-15T15:25:00;12.50;80.90
9271;DHT22;4673;53.458;9.940;2024-02-15T15:27:34;12.50;81.00
9271;DHT22;4673;53.458;9.940;2024-02-15T15:30:06;12.40;80.70
9271;DHT22;4673;53.458;9.940;2024-02-15T15:32:31;12.50;80.70
9271;DHT22;4673;53.458;9.940;2024-02-15T15:34:59;12.40;80.60
9271;DHT22;4673;53.458;9.940;2024-02-15T15:37:24;12.50;80.80
9271;DHT22;4673;53.458;9.940;2024-02-15T15:39:50;12.50;80.70
9271;DHT22;4673;53.458;9.940;2024-02-15T15:42:16;12.50;80.50
9271;DHT22;4673;53.458;9.940;2024-02-15T15:44:43;12.40;80.30
9271;DHT22;4673;53.458;9.940;2024-02-15T15:47:09;12.30;80.30
9271;DHT22;4673;53.458;9.940;2024-02-15T15:49:35;12.30;80.50
9271;DHT22;4673;53.458;9.940;2024-02-15T15:52:01;12.30;80.50
9271;DHT22;4673;53.458;9.940;2024-02-15T15:54:27;12.50;80.70
9271;DHT22;4673;53.458;9.940;2024-02-15T15:56:53;12.30;80.80
9271;DHT22;4673;53.458;9.940;2024-02-15T15:59:18;12.40;80.90
9271;DHT22;4673;53.458;9.940;2024-02-15T16:01:53;12.30;80.50
9271;DHT22;4673;53.458;9.940;2024-02-15T16:04:19;12.30;80.70
9271;DHT22;4673;53.458;9.940;2024-02-15T16:06:47;12.40;80.90
9271;DHT22;4673;53.458;9.940;2024-02-15T16:09:13;12.40;80.80
9271;DHT22;4673;53.458;9.940;2024-02-15T16:11:40;12.30;80.60
9271;DHT22;4673;53.458;9.940;2024-02-15T16:14:10;12.30;80.40
9271;DHT22;4673;53.458;9.940;2024-02-15T16:16:37;12.20;80.40
9271;DHT22;4673;53.458;9.940;2024-02-15T16:19:04;12.20;80.80
9271;DHT22;4673;53.458;9.940;2024-02-15T16:21:31;12.20;81.20
9271;DHT22;4673;53.458;9.940;2024-02-15T16:23:57;12.20;81.20
9271;DHT22;4673;53.458;9.940;2024-02-15T16:26:22;12.30;81.40